Terminal Aerodrome Forecast
Issued by NWS

Home | Current Version | Previous Version | Text Only | Print | Product List | Glossary On
Versions: 1 2 3 4 5 6 7 8 9 10 11 12 13 14 15 16 17
000
FTUS45 KABQ 241139
TAFROW
TAF
KROW 241139Z 2412/2512 24008KT P6SM SCT140
     FM241600 23011KT P6SM SKC
     FM242000 22012G20KT P6SM FEW090
     FM250200 24007KT P6SM SCT100=

USA.gov is the U.S. government's official web portal to all federal, state and local government web resources and services.